sensor_id;sensor_type;location;lat;lon;timestamp;P1;durP1;ratioP1;P2;durP2;ratioP2
75687;SDS011;64300;45.034;38.910;2023-01-29T00:01:52;34.78;;;14.52;;
75687;SDS011;64300;45.034;38.910;2023-01-29T00:06:48;35.13;;;14.23;;
75687;SDS011;64300;45.034;38.910;2023-01-29T00:09:14;33.95;;;13.23;;
75687;SDS011;64300;45.034;38.910;2023-01-29T00:11:39;30.80;;;12.65;;
75687;SDS011;64300;45.034;38.910;2023-01-29T00:14:05;32.03;;;13.57;;
75687;SDS011;64300;45.034;38.910;2023-01-29T00:18:57;30.98;;;13.05;;
75687;SDS011;64300;45.034;38.910;2023-01-29T00:21:27;32.25;;;13.50;;
75687;SDS011;64300;45.034;38.910;2023-01-29T00:23:55;36.40;;;12.98;;
75687;SDS011;64300;45.034;38.910;2023-01-29T00:26:21;32.85;;;13.55;;
75687;SDS011;64300;45.034;38.910;2023-01-29T00:28:47;36.17;;;14.18;;
75687;SDS011;64300;45.034;38.910;2023-01-29T00:31:24;37.58;;;13.52;;
75687;SDS011;64300;45.034;38.910;2023-01-29T00:33:50;39.10;;;13.02;;
75687;SDS011;64300;45.034;38.910;2023-01-29T00:36:17;29.30;;;12.23;;
75687;SDS011;64300;45.034;38.910;2023-01-29T00:38:44;34.10;;;14.95;;
75687;SDS011;64300;45.034;38.910;2023-01-29T00:41:19;29.75;;;12.18;;
75687;SDS011;64300;45.034;38.910;2023-01-29T00:44:07;30.90;;;12.68;;
75687;SDS011;64300;45.034;38.910;2023-01-29T00:46:51;31.23;;;13.48;;
75687;SDS011;64300;45.034;38.910;2023-01-29T00:49:17;34.63;;;13.20;;
75687;SDS011;64300;45.034;38.910;2023-01-29T00:51:43;32.03;;;13.50;;
75687;SDS011;64300;45.034;38.910;2023-01-29T00:54:29;31.38;;;13.13;;
75687;SDS011;64300;45.034;38.910;2023-01-29T00:56:55;31.42;;;12.27;;
75687;SDS011;64300;45.034;38.910;2023-01-29T00:59:21;33.63;;;13.68;;
75687;SDS011;64300;45.034;38.910;2023-01-29T01:01:46;34.05;;;14.25;;
75687;SDS011;64300;45.034;38.910;2023-01-29T01:04:31;35.92;;;13.80;;
75687;SDS011;64300;45.034;38.910;2023-01-29T01:06:56;32.28;;;12.80;;
75687;SDS011;64300;45.034;38.910;2023-01-29T01:09:22;35.13;;;13.95;;
75687;SDS011;64300;45.034;38.910;2023-01-29T01:12:06;31.08;;;13.95;;
75687;SDS011;64300;45.034;38.910;2023-01-29T01:14:32;30.77;;;13.32;;
75687;SDS011;64300;45.034;38.910;2023-01-29T01:17:00;35.17;;;13.60;;
75687;SDS011;64300;45.034;38.910;2023-01-29T01:19:26;31.10;;;13.15;;
75687;SDS011;64300;45.034;38.910;2023-01-29T01:21:52;35.15;;;13.80;;
75687;SDS011;64300;45.034;38.910;2023-01-29T01:24:18;37.00;;;14.43;;
75687;SDS011;64300;45.034;38.910;2023-01-29T01:26:47;31.95;;;12.85;;
75687;SDS011;64300;45.034;38.910;2023-01-29T01:29:13;36.83;;;13.63;;
75687;SDS011;64300;45.034;38.910;2023-01-29T01:31:39;36.92;;;13.35;;
75687;SDS011;64300;45.034;38.910;2023-01-29T01:34:05;36.00;;;13.40;;
75687;SDS011;64300;45.034;38.910;2023-01-29T01:36:31;32.13;;;12.90;;
75687;SDS011;64300;45.034;38.910;2023-01-29T01:38:57;32.90;;;13.10;;
75687;SDS011;64300;45.034;38.910;2023-01-29T01:41:23;32.45;;;13.23;;
75687;SDS011;64300;45.034;38.910;2023-01-29T01:43:53;31.80;;;13.98;;
75687;SDS011;64300;45.034;38.910;2023-01-29T01:46:24;34.17;;;13.38;;
75687;SDS011;64300;45.034;38.910;2023-01-29T01:48:55;35.08;;;13.27;;
75687;SDS011;64300;45.034;38.910;2023-01-29T01:51:24;37.97;;;14.65;;
75687;SDS011;64300;45.034;38.910;2023-01-29T01:54:00;28.75;;;12.35;;
75687;SDS011;64300;45.034;38.910;2023-01-29T01:56:36;34.78;;;13.15;;
75687;SDS011;64300;45.034;38.910;2023-01-29T01:59:08;31.55;;;13.52;;
75687;SDS011;64300;45.034;38.910;2023-01-29T02:01:37;36.78;;;13.35;;
75687;SDS011;64300;45.034;38.910;2023-01-29T02:04:11;34.30;;;13.05;;
75687;SDS011;64300;45.034;38.910;2023-01-29T02:07:00;32.80;;;14.25;;
75687;SDS011;64300;45.034;38.910;2023-01-29T02:09:49;31.88;;;13.43;;
75687;SDS011;64300;45.034;38.910;2023-01-29T02:12:18;37.22;;;14.10;;
75687;SDS011;64300;45.034;38.910;2023-01-29T02:14:45;34.03;;;14.45;;
75687;SDS011;64300;45.034;38.910;2023-01-29T02:17:12;33.70;;;13.02;;
75687;SDS011;64300;45.034;38.910;2023-01-29T02:28:24;32.35;;;13.68;;
75687;SDS011;64300;45.034;38.910;2023-01-29T02:34:05;33.70;;;13.93;;
75687;SDS011;64300;45.034;38.910;2023-01-29T02:42:15;37.15;;;12.90;;
75687;SDS011;64300;45.034;38.910;2023-01-29T02:45:13;31.00;;;13.10;;
75687;SDS011;64300;45.034;38.910;2023-01-29T02:48:16;33.47;;;13.38;;
75687;SDS011;64300;45.034;38.910;2023-01-29T02:53:25;37.92;;;15.18;;
75687;SDS011;64300;45.034;38.910;2023-01-29T02:56:06;36.35;;;13.70;;
75687;SDS011;64300;45.034;38.910;2023-01-29T02:58:41;32.53;;;13.88;;
75687;SDS011;64300;45.034;38.910;2023-01-29T03:01:18;31.83;;;14.23;;
75687;SDS011;64300;45.034;38.910;2023-01-29T03:03:51;30.25;;;13.73;;
75687;SDS011;64300;45.034;38.910;2023-01-29T03:06:24;38.25;;;15.32;;
75687;SDS011;64300;45.034;38.910;2023-01-29T03:09:00;37.58;;;14.43;;
75687;SDS011;64300;45.034;38.910;2023-01-29T03:11:33;35.47;;;13.85;;
75687;SDS011;64300;45.034;38.910;2023-01-29T03:19:08;38.60;;;14.35;;
75687;SDS011;64300;45.034;38.910;2023-01-29T03:21:53;32.05;;;13.43;;
75687;SDS011;64300;45.034;38.910;2023-01-29T03:24:36;35.22;;;13.43;;
75687;SDS011;64300;45.034;38.910;2023-01-29T03:27:32;33.30;;;13.05;;
75687;SDS011;64300;45.034;38.910;2023-01-29T03:30:29;34.17;;;13.95;;
75687;SDS011;64300;45.034;38.910;2023-01-29T03:33:41;33.20;;;13.45;;
75687;SDS011;64300;45.034;38.910;2023-01-29T03:41:32;34.67;;;13.27;;
75687;SDS011;64300;45.034;38.910;2023-01-29T03:44:08;36.65;;;14.40;;
75687;SDS011;64300;45.034;38.910;2023-01-29T03:46:46;34.45;;;13.88;;
75687;SDS011;64300;45.034;38.910;2023-01-29T03:49:34;40.42;;;14.82;;
75687;SDS011;64300;45.034;38.910;2023-01-29T04:05:42;35.42;;;12.93;;
75687;SDS011;64300;45.034;38.910;2023-01-29T04:08:26;36.72;;;14.23;;
75687;SDS011;64300;45.034;38.910;2023-01-29T04:10:58;41.20;;;16.65;;
75687;SDS011;64300;45.034;38.910;2023-01-29T04:13:27;37.03;;;15.20;;
75687;SDS011;64300;45.034;38.910;2023-01-29T04:15:59;35.03;;;12.82;;
75687;SDS011;64300;45.034;38.910;2023-01-29T04:18:50;39.17;;;14.75;;
75687;SDS011;64300;45.034;38.910;2023-01-29T04:21:23;32.95;;;13.57;;
75687;SDS011;64300;45.034;38.910;2023-01-29T04:23:50;37.35;;;14.75;;
75687;SDS011;64300;45.034;38.910;2023-01-29T04:32:17;36.90;;;14.82;;
75687;SDS011;64300;45.034;38.910;2023-01-29T04:38:10;41.25;;;14.50;;
75687;SDS011;64300;45.034;38.910;2023-01-29T04:43:29;34.03;;;12.93;;
75687;SDS011;64300;45.034;38.910;2023-01-29T04:56:15;40.60;;;15.00;;
75687;SDS011;64300;45.034;38.910;2023-01-29T04:58:51;36.90;;;14.70;;
75687;SDS011;64300;45.034;38.910;2023-01-29T05:01:21;41.20;;;14.75;;
75687;SDS011;64300;45.034;38.910;2023-01-29T05:03:53;35.42;;;13.95;;
75687;SDS011;64300;45.034;38.910;2023-01-29T05:06:20;40.03;;;15.68;;
75687;SDS011;64300;45.034;38.910;2023-01-29T05:08:47;41.17;;;14.98;;
75687;SDS011;64300;45.034;38.910;2023-01-29T05:11:15;40.80;;;14.27;;
75687;SDS011;64300;45.034;38.910;2023-01-29T05:13:43;36.95;;;14.43;;
75687;SDS011;64300;45.034;38.910;2023-01-29T05:16:13;40.08;;;14.45;;
75687;SDS011;64300;45.034;38.910;2023-01-29T05:18:45;35.25;;;14.05;;
75687;SDS011;64300;45.034;38.910;2023-01-29T05:21:11;39.50;;;14.80;;
75687;SDS011;64300;45.034;38.910;2023-01-29T05:23:37;42.45;;;15.70;;
75687;SDS011;64300;45.034;38.910;2023-01-29T05:26:03;40.00;;;14.32;;
75687;SDS011;64300;45.034;38.910;2023-01-29T05:31:21;32.47;;;12.70;;
75687;SDS011;64300;45.034;38.910;2023-01-29T05:33:47;48.13;;;14.95;;
75687;SDS011;64300;45.034;38.910;2023-01-29T05:36:13;48.20;;;14.40;;
75687;SDS011;64300;45.034;38.910;2023-01-29T05:38:39;33.30;;;14.40;;
75687;SDS011;64300;45.034;38.910;2023-01-29T05:41:05;39.20;;;15.00;;
75687;SDS011;64300;45.034;38.910;2023-01-29T05:43:31;37.95;;;14.90;;
75687;SDS011;64300;45.034;38.910;2023-01-29T05:45:57;37.58;;;15.32;;
75687;SDS011;64300;45.034;38.910;2023-01-29T05:48:25;39.47;;;14.98;;
75687;SDS011;64300;45.034;38.910;2023-01-29T05:51:03;39.03;;;16.10;;
75687;SDS011;64300;45.034;38.910;2023-01-29T05:53:29;38.72;;;14.77;;
75687;SDS011;64300;45.034;38.910;2023-01-29T05:55:59;34.67;;;14.63;;
75687;SDS011;64300;45.034;38.910;2023-01-29T05:58:25;37.38;;;15.27;;
75687;SDS011;64300;45.034;38.910;2023-01-29T06:00:51;35.88;;;13.88;;
75687;SDS011;64300;45.034;38.910;2023-01-29T06:03:25;43.55;;;15.90;;
75687;SDS011;64300;45.034;38.910;2023-01-29T06:05:51;46.20;;;16.63;;
75687;SDS011;64300;45.034;38.910;2023-01-29T06:08:17;41.80;;;16.52;;
75687;SDS011;64300;45.034;38.910;2023-01-29T06:10:43;42.47;;;16.15;;
75687;SDS011;64300;45.034;38.910;2023-01-29T06:13:08;35.30;;;15.25;;
75687;SDS011;64300;45.034;38.910;2023-01-29T06:15:34;41.28;;;15.90;;
75687;SDS011;64300;45.034;38.910;2023-01-29T06:18:00;41.45;;;15.10;;
75687;SDS011;64300;45.034;38.910;2023-01-29T06:20:26;39.08;;;15.48;;
75687;SDS011;64300;45.034;38.910;2023-01-29T06:22:52;42.03;;;15.55;;
75687;SDS011;64300;45.034;38.910;2023-01-29T06:25:17;43.25;;;17.08;;
75687;SDS011;64300;45.034;38.910;2023-01-29T06:27:43;37.08;;;16.50;;
75687;SDS011;64300;45.034;38.910;2023-01-29T06:30:09;43.03;;;17.33;;
75687;SDS011;64300;45.034;38.910;2023-01-29T06:32:36;45.63;;;16.67;;
75687;SDS011;64300;45.034;38.910;2023-01-29T06:35:01;41.78;;;15.68;;
75687;SDS011;64300;45.034;38.910;2023-01-29T06:37:28;39.67;;;16.88;;
75687;SDS011;64300;45.034;38.910;2023-01-29T06:39:56;39.53;;;16.40;;
75687;SDS011;64300;45.034;38.910;2023-01-29T06:42:22;39.08;;;16.70;;
75687;SDS011;64300;45.034;38.910;2023-01-29T06:44:54;41.97;;;17.45;;
75687;SDS011;64300;45.034;38.910;2023-01-29T06:47:21;42.53;;;18.02;;
75687;SDS011;64300;45.034;38.910;2023-01-29T06:49:48;39.63;;;16.50;;
75687;SDS011;64300;45.034;38.910;2023-01-29T06:54:39;45.55;;;16.45;;
75687;SDS011;64300;45.034;38.910;2023-01-29T06:59:31;39.67;;;15.02;;
75687;SDS011;64300;45.034;38.910;2023-01-29T07:01:57;38.53;;;16.02;;
75687;SDS011;64300;45.034;38.910;2023-01-29T07:04:24;40.33;;;18.00;;
75687;SDS011;64300;45.034;38.910;2023-01-29T07:06:50;42.13;;;16.85;;
75687;SDS011;64300;45.034;38.910;2023-01-29T07:09:16;41.17;;;18.00;;
75687;SDS011;64300;45.034;38.910;2023-01-29T07:11:42;42.47;;;16.52;;
75687;SDS011;64300;45.034;38.910;2023-01-29T07:14:07;38.65;;;16.00;;
75687;SDS011;64300;45.034;38.910;2023-01-29T07:16:33;40.78;;;16.55;;
75687;SDS011;64300;45.034;38.910;2023-01-29T07:18:59;39.72;;;17.90;;
75687;SDS011;64300;45.034;38.910;2023-01-29T07:21:26;43.83;;;17.48;;
75687;SDS011;64300;45.034;38.910;2023-01-29T07:23:52;44.72;;;16.52;;
75687;SDS011;64300;45.034;38.910;2023-01-29T07:26:18;37.33;;;16.40;;
75687;SDS011;64300;45.034;38.910;2023-01-29T07:28:44;40.28;;;17.52;;
75687;SDS011;64300;45.034;38.910;2023-01-29T07:31:10;38.95;;;16.70;;
75687;SDS011;64300;45.034;38.910;2023-01-29T07:33:38;42.03;;;17.35;;
75687;SDS011;64300;45.034;38.910;2023-01-29T07:36:08;41.72;;;16.90;;
75687;SDS011;64300;45.034;38.910;2023-01-29T07:38:35;40.90;;;16.90;;
75687;SDS011;64300;45.034;38.910;2023-01-29T07:41:01;44.30;;;17.65;;
75687;SDS011;64300;45.034;38.910;2023-01-29T07:43:27;44.97;;;19.45;;
75687;SDS011;64300;45.034;38.910;2023-01-29T07:45:53;47.45;;;19.42;;
75687;SDS011;64300;45.034;38.910;2023-01-29T07:48:18;50.58;;;20.17;;
75687;SDS011;64300;45.034;38.910;2023-01-29T07:50:44;48.72;;;19.23;;
75687;SDS011;64300;45.034;38.910;2023-01-29T07:53:11;49.90;;;18.95;;
75687;SDS011;64300;45.034;38.910;2023-01-29T07:55:39;39.38;;;17.63;;
75687;SDS011;64300;45.034;38.910;2023-01-29T07:58:05;46.03;;;20.05;;
75687;SDS011;64300;45.034;38.910;2023-01-29T08:00:31;45.13;;;18.60;;
75687;SDS011;64300;45.034;38.910;2023-01-29T08:05:27;44.80;;;17.75;;
75687;SDS011;64300;45.034;38.910;2023-01-29T08:07:52;39.92;;;17.80;;
75687;SDS011;64300;45.034;38.910;2023-01-29T08:10:18;52.10;;;18.05;;
75687;SDS011;64300;45.034;38.910;2023-01-29T08:12:44;45.50;;;18.02;;
75687;SDS011;64300;45.034;38.910;2023-01-29T08:15:10;41.83;;;18.02;;
75687;SDS011;64300;45.034;38.910;2023-01-29T08:17:36;45.78;;;17.88;;
75687;SDS011;64300;45.034;38.910;2023-01-29T08:20:04;44.60;;;17.23;;
75687;SDS011;64300;45.034;38.910;2023-01-29T08:22:31;44.78;;;18.23;;
75687;SDS011;64300;45.034;38.910;2023-01-29T08:27:23;40.03;;;17.38;;
75687;SDS011;64300;45.034;38.910;2023-01-29T08:29:49;36.13;;;16.20;;
75687;SDS011;64300;45.034;38.910;2023-01-29T08:32:15;38.17;;;17.05;;
75687;SDS011;64300;45.034;38.910;2023-01-29T08:37:07;39.35;;;18.05;;
75687;SDS011;64300;45.034;38.910;2023-01-29T08:41:58;41.63;;;17.88;;
75687;SDS011;64300;45.034;38.910;2023-01-29T08:44:24;34.92;;;16.63;;
75687;SDS011;64300;45.034;38.910;2023-01-29T08:46:49;35.78;;;16.40;;
75687;SDS011;64300;45.034;38.910;2023-01-29T08:51:41;39.78;;;17.45;;
75687;SDS011;64300;45.034;38.910;2023-01-29T08:56:32;43.95;;;17.48;;
75687;SDS011;64300;45.034;38.910;2023-01-29T09:01:24;37.08;;;16.08;;
75687;SDS011;64300;45.034;38.910;2023-01-29T09:06:16;37.65;;;15.98;;
75687;SDS011;64300;45.034;38.910;2023-01-29T09:11:08;39.45;;;15.85;;
75687;SDS011;64300;45.034;38.910;2023-01-29T09:13:34;38.47;;;16.35;;
75687;SDS011;64300;45.034;38.910;2023-01-29T09:18:28;38.78;;;16.15;;
75687;SDS011;64300;45.034;38.910;2023-01-29T09:20:55;31.85;;;14.43;;
75687;SDS011;64300;45.034;38.910;2023-01-29T09:23:21;36.45;;;14.90;;
75687;SDS011;64300;45.034;38.910;2023-01-29T09:25:48;35.50;;;16.15;;
75687;SDS011;64300;45.034;38.910;2023-01-29T09:28:14;37.13;;;13.93;;
75687;SDS011;64300;45.034;38.910;2023-01-29T09:30:42;38.88;;;14.77;;
75687;SDS011;64300;45.034;38.910;2023-01-29T09:33:11;29.50;;;12.80;;
75687;SDS011;64300;45.034;38.910;2023-01-29T09:35:38;32.08;;;14.15;;
75687;SDS011;64300;45.034;38.910;2023-01-29T09:38:11;31.52;;;14.10;;
75687;SDS011;64300;45.034;38.910;2023-01-29T09:43:42;36.45;;;15.57;;
75687;SDS011;64300;45.034;38.910;2023-01-29T09:48:49;33.60;;;15.43;;
75687;SDS011;64300;45.034;38.910;2023-01-29T09:51:40;38.30;;;15.82;;
75687;SDS011;64300;45.034;38.910;2023-01-29T09:54:28;40.30;;;15.95;;
75687;SDS011;64300;45.034;38.910;2023-01-29T09:56:58;35.00;;;16.05;;
75687;SDS011;64300;45.034;38.910;2023-01-29T09:59:29;39.20;;;16.98;;
75687;SDS011;64300;45.034;38.910;2023-01-29T10:02:04;46.25;;;16.23;;
75687;SDS011;64300;45.034;38.910;2023-01-29T10:09:56;33.65;;;15.63;;
75687;SDS011;64300;45.034;38.910;2023-01-29T10:15:10;37.72;;;15.13;;
75687;SDS011;64300;45.034;38.910;2023-01-29T10:17:56;34.15;;;15.48;;
75687;SDS011;64300;45.034;38.910;2023-01-29T10:20:54;36.33;;;15.93;;
75687;SDS011;64300;45.034;38.910;2023-01-29T10:23:42;37.70;;;16.23;;
75687;SDS011;64300;45.034;38.910;2023-01-29T10:26:15;33.95;;;15.30;;
75687;SDS011;64300;45.034;38.910;2023-01-29T10:28:46;38.95;;;15.68;;
75687;SDS011;64300;45.034;38.910;2023-01-29T10:34:00;33.95;;;16.17;;
75687;SDS011;64300;45.034;38.910;2023-01-29T10:36:33;29.67;;;14.77;;
75687;SDS011;64300;45.034;38.910;2023-01-29T10:47:11;27.00;;;13.65;;
75687;SDS011;64300;45.034;38.910;2023-01-29T10:50:03;31.92;;;14.00;;
75687;SDS011;64300;45.034;38.910;2023-01-29T10:55:50;32.08;;;13.70;;
75687;SDS011;64300;45.034;38.910;2023-01-29T10:58:44;27.92;;;13.57;;
75687;SDS011;64300;45.034;38.910;2023-01-29T11:01:16;32.42;;;12.68;;
75687;SDS011;64300;45.034;38.910;2023-01-29T11:03:42;30.45;;;13.27;;
75687;SDS011;64300;45.034;38.910;2023-01-29T11:11:18;30.80;;;13.98;;
75687;SDS011;64300;45.034;38.910;2023-01-29T11:13:59;28.77;;;12.27;;
75687;SDS011;64300;45.034;38.910;2023-01-29T11:16:38;25.17;;;12.23;;
75687;SDS011;64300;45.034;38.910;2023-01-29T11:19:06;31.90;;;12.55;;
75687;SDS011;64300;45.034;38.910;2023-01-29T11:21:31;24.05;;;12.15;;
75687;SDS011;64300;45.034;38.910;2023-01-29T11:24:25;29.05;;;11.80;;
75687;SDS011;64300;45.034;38.910;2023-01-29T11:27:01;29.90;;;10.88;;
75687;SDS011;64300;45.034;38.910;2023-01-29T11:29:46;23.90;;;9.30;;
75687;SDS011;64300;45.034;38.910;2023-01-29T11:32:13;17.30;;;8.45;;
75687;SDS011;64300;45.034;38.910;2023-01-29T11:35:03;21.52;;;8.68;;
75687;SDS011;64300;45.034;38.910;2023-01-29T11:37:39;20.48;;;9.00;;
75687;SDS011;64300;45.034;38.910;2023-01-29T11:42:48;17.27;;;7.20;;
75687;SDS011;64300;45.034;38.910;2023-01-29T11:45:24;14.18;;;6.95;;
75687;SDS011;64300;45.034;38.910;2023-01-29T11:47:52;16.13;;;7.75;;
75687;SDS011;64300;45.034;38.910;2023-01-29T11:50:23;20.50;;;8.48;;
75687;SDS011;64300;45.034;38.910;2023-01-29T11:52:54;20.10;;;8.25;;
75687;SDS011;64300;45.034;38.910;2023-01-29T11:55:21;26.00;;;10.05;;
75687;SDS011;64300;45.034;38.910;2023-01-29T11:58:01;18.38;;;8.80;;
75687;SDS011;64300;45.034;38.910;2023-01-29T12:00:32;21.90;;;9.27;;
75687;SDS011;64300;45.034;38.910;2023-01-29T12:03:10;20.88;;;9.30;;
75687;SDS011;64300;45.034;38.910;2023-01-29T12:05:53;18.08;;;8.73;;
75687;SDS011;64300;45.034;38.910;2023-01-29T12:08:20;21.63;;;8.60;;
75687;SDS011;64300;45.034;38.910;2023-01-29T12:10:48;28.23;;;11.77;;
75687;SDS011;64300;45.034;38.910;2023-01-29T12:15:47;27.63;;;12.75;;
75687;SDS011;64300;45.034;38.910;2023-01-29T12:18:27;30.38;;;12.15;;
75687;SDS011;64300;45.034;38.910;2023-01-29T12:20:58;29.27;;;12.13;;
75687;SDS011;64300;45.034;38.910;2023-01-29T12:31:50;22.15;;;10.18;;
75687;SDS011;64300;45.034;38.910;2023-01-29T12:34:43;17.63;;;8.18;;
75687;SDS011;64300;45.034;38.910;2023-01-29T12:37:44;21.75;;;9.95;;
75687;SDS011;64300;45.034;38.910;2023-01-29T12:40:18;23.20;;;10.32;;
75687;SDS011;64300;45.034;38.910;2023-01-29T12:42:49;28.38;;;10.85;;
75687;SDS011;64300;45.034;38.910;2023-01-29T12:45:20;22.83;;;9.95;;
75687;SDS011;64300;45.034;38.910;2023-01-29T12:47:50;23.15;;;10.43;;
75687;SDS011;64300;45.034;38.910;2023-01-29T12:50:21;29.00;;;10.65;;
75687;SDS011;64300;45.034;38.910;2023-01-29T12:52:58;28.70;;;11.52;;
75687;SDS011;64300;45.034;38.910;2023-01-29T12:55:50;29.80;;;11.95;;
75687;SDS011;64300;45.034;38.910;2023-01-29T12:58:34;27.67;;;11.77;;
75687;SDS011;64300;45.034;38.910;2023-01-29T13:01:07;25.45;;;10.77;;
75687;SDS011;64300;45.034;38.910;2023-01-29T13:04:00;24.48;;;11.35;;
75687;SDS011;64300;45.034;38.910;2023-01-29T13:06:32;26.08;;;11.45;;
75687;SDS011;64300;45.034;38.910;2023-01-29T13:09:28;29.88;;;10.63;;
75687;SDS011;64300;45.034;38.910;2023-01-29T13:12:01;24.13;;;10.95;;
75687;SDS011;64300;45.034;38.910;2023-01-29T13:14:48;23.08;;;11.05;;
75687;SDS011;64300;45.034;38.910;2023-01-29T13:17:32;28.95;;;13.38;;
75687;SDS011;64300;45.034;38.910;2023-01-29T13:22:39;29.05;;;10.95;;
75687;SDS011;64300;45.034;38.910;2023-01-29T13:25:11;23.42;;;9.45;;
75687;SDS011;64300;45.034;38.910;2023-01-29T13:27:42;32.15;;;12.70;;
75687;SDS011;64300;45.034;38.910;2023-01-29T13:30:29;32.55;;;13.25;;
75687;SDS011;64300;45.034;38.910;2023-01-29T13:35:33;24.95;;;9.25;;
75687;SDS011;64300;45.034;38.910;2023-01-29T13:38:05;23.98;;;10.75;;
75687;SDS011;64300;45.034;38.910;2023-01-29T13:41:04;24.67;;;10.13;;
75687;SDS011;64300;45.034;38.910;2023-01-29T13:43:34;28.63;;;10.15;;
75687;SDS011;64300;45.034;38.910;2023-01-29T13:46:09;26.30;;;9.55;;
75687;SDS011;64300;45.034;38.910;2023-01-29T13:48:45;24.77;;;9.65;;
75687;SDS011;64300;45.034;38.910;2023-01-29T13:51:14;28.27;;;9.77;;
75687;SDS011;64300;45.034;38.910;2023-01-29T13:53:58;26.77;;;9.48;;
75687;SDS011;64300;45.034;38.910;2023-01-29T13:56:29;26.17;;;10.13;;
75687;SDS011;64300;45.034;38.910;2023-01-29T13:58:56;20.02;;;9.07;;
75687;SDS011;64300;45.034;38.910;2023-01-29T14:06:51;32.72;;;11.55;;
75687;SDS011;64300;45.034;38.910;2023-01-29T14:12:03;28.60;;;11.05;;
75687;SDS011;64300;45.034;38.910;2023-01-29T14:17:21;34.03;;;9.95;;
75687;SDS011;64300;45.034;38.910;2023-01-29T14:19:50;30.20;;;10.63;;
75687;SDS011;64300;45.034;38.910;2023-01-29T14:22:22;26.17;;;10.18;;
75687;SDS011;64300;45.034;38.910;2023-01-29T14:25:02;28.67;;;11.32;;
75687;SDS011;64300;45.034;38.910;2023-01-29T14:27:29;25.83;;;9.75;;
75687;SDS011;64300;45.034;38.910;2023-01-29T14:29:59;34.40;;;10.10;;
75687;SDS011;64300;45.034;38.910;2023-01-29T14:32:31;27.13;;;10.75;;
75687;SDS011;64300;45.034;38.910;2023-01-29T14:37:51;31.38;;;11.98;;
75687;SDS011;64300;45.034;38.910;2023-01-29T14:40:21;28.13;;;11.23;;
75687;SDS011;64300;45.034;38.910;2023-01-29T14:43:02;29.55;;;12.70;;
75687;SDS011;64300;45.034;38.910;2023-01-29T14:45:44;26.02;;;11.88;;
75687;SDS011;64300;45.034;38.910;2023-01-29T14:50:57;19.95;;;9.95;;
75687;SDS011;64300;45.034;38.910;2023-01-29T14:56:18;21.05;;;8.75;;
75687;SDS011;64300;45.034;38.910;2023-01-29T14:58:51;21.02;;;9.13;;
75687;SDS011;64300;45.034;38.910;2023-01-29T15:01:34;19.52;;;8.25;;
75687;SDS011;64300;45.034;38.910;2023-01-29T15:04:12;19.55;;;7.57;;
75687;SDS011;64300;45.034;38.910;2023-01-29T15:06:44;19.70;;;7.68;;
75687;SDS011;64300;45.034;38.910;2023-01-29T15:17:17;18.17;;;8.13;;
75687;SDS011;64300;45.034;38.910;2023-01-29T15:19:50;20.52;;;8.57;;
75687;SDS011;64300;45.034;38.910;2023-01-29T15:22:18;18.05;;;7.95;;
75687;SDS011;64300;45.034;38.910;2023-01-29T15:24:47;15.57;;;7.20;;
75687;SDS011;64300;45.034;38.910;2023-01-29T15:27:31;17.73;;;8.07;;
75687;SDS011;64300;45.034;38.910;2023-01-29T15:29:58;13.98;;;7.88;;
75687;SDS011;64300;45.034;38.910;2023-01-29T15:32:27;19.75;;;8.95;;
75687;SDS011;64300;45.034;38.910;2023-01-29T15:35:08;17.20;;;8.38;;
75687;SDS011;64300;45.034;38.910;2023-01-29T15:37:39;16.58;;;7.90;;
75687;SDS011;64300;45.034;38.910;2023-01-29T15:42:43;23.17;;;8.98;;
75687;SDS011;64300;45.034;38.910;2023-01-29T15:47:55;22.85;;;8.55;;
75687;SDS011;64300;45.034;38.910;2023-01-29T15:50:32;18.73;;;8.88;;
75687;SDS011;64300;45.034;38.910;2023-01-29T15:53:01;16.65;;;7.95;;
75687;SDS011;64300;45.034;38.910;2023-01-29T15:55:30;22.15;;;8.80;;
75687;SDS011;64300;45.034;38.910;2023-01-29T15:57:57;23.02;;;9.10;;
75687;SDS011;64300;45.034;38.910;2023-01-29T16:00:26;43.80;;;17.95;;
75687;SDS011;64300;45.034;38.910;2023-01-29T16:02:54;51.42;;;20.35;;
75687;SDS011;64300;45.034;38.910;2023-01-29T16:05:28;42.92;;;18.73;;
75687;SDS011;64300;45.034;38.910;2023-01-29T16:07:55;31.42;;;13.85;;
75687;SDS011;64300;45.034;38.910;2023-01-29T16:10:25;28.08;;;13.02;;
75687;SDS011;64300;45.034;38.910;2023-01-29T16:12:53;27.85;;;13.10;;
75687;SDS011;64300;45.034;38.910;2023-01-29T16:15:52;26.15;;;12.52;;
75687;SDS011;64300;45.034;38.910;2023-01-29T16:18:21;24.73;;;11.35;;
75687;SDS011;64300;45.034;38.910;2023-01-29T16:21:09;25.42;;;11.57;;
75687;SDS011;64300;45.034;38.910;2023-01-29T16:23:40;28.80;;;11.80;;
75687;SDS011;64300;45.034;38.910;2023-01-29T16:26:20;27.98;;;11.60;;
75687;SDS011;64300;45.034;38.910;2023-01-29T16:28:49;25.00;;;11.70;;
75687;SDS011;64300;45.034;38.910;2023-01-29T16:33:52;27.85;;;11.88;;
75687;SDS011;64300;45.034;38.910;2023-01-29T16:36:24;28.30;;;12.70;;
75687;SDS011;64300;45.034;38.910;2023-01-29T16:39:01;28.20;;;13.57;;
75687;SDS011;64300;45.034;38.910;2023-01-29T16:41:37;34.47;;;14.52;;
75687;SDS011;64300;45.034;38.910;2023-01-29T16:46:33;27.48;;;11.55;;
75687;SDS011;64300;45.034;38.910;2023-01-29T16:49:01;33.55;;;15.25;;
75687;SDS011;64300;45.034;38.910;2023-01-29T16:51:47;32.05;;;14.13;;
75687;SDS011;64300;45.034;38.910;2023-01-29T16:56:46;33.78;;;14.15;;
75687;SDS011;64300;45.034;38.910;2023-01-29T16:59:18;36.30;;;15.18;;
75687;SDS011;64300;45.034;38.910;2023-01-29T17:01:59;36.58;;;16.30;;
75687;SDS011;64300;45.034;38.910;2023-01-29T17:04:25;38.13;;;15.93;;
75687;SDS011;64300;45.034;38.910;2023-01-29T17:06:58;34.35;;;15.60;;
75687;SDS011;64300;45.034;38.910;2023-01-29T17:09:30;36.67;;;15.80;;
75687;SDS011;64300;45.034;38.910;2023-01-29T17:11:59;32.72;;;15.15;;
75687;SDS011;64300;45.034;38.910;2023-01-29T17:14:32;35.65;;;16.40;;
75687;SDS011;64300;45.034;38.910;2023-01-29T17:19:28;33.22;;;14.82;;
75687;SDS011;64300;45.034;38.910;2023-01-29T17:21:57;39.35;;;17.65;;
75687;SDS011;64300;45.034;38.910;2023-01-29T17:24:24;36.28;;;16.50;;
75687;SDS011;64300;45.034;38.910;2023-01-29T17:26:50;39.53;;;18.38;;
75687;SDS011;64300;45.034;38.910;2023-01-29T17:29:17;42.15;;;18.27;;
75687;SDS011;64300;45.034;38.910;2023-01-29T17:31:45;38.30;;;17.35;;
75687;SDS011;64300;45.034;38.910;2023-01-29T17:34:11;36.78;;;17.33;;
75687;SDS011;64300;45.034;38.910;2023-01-29T17:36:42;36.95;;;17.10;;
75687;SDS011;64300;45.034;38.910;2023-01-29T17:39:11;36.50;;;16.75;;
75687;SDS011;64300;45.034;38.910;2023-01-29T17:44:07;36.08;;;16.98;;
75687;SDS011;64300;45.034;38.910;2023-01-29T17:48:58;38.53;;;16.00;;
75687;SDS011;64300;45.034;38.910;2023-01-29T17:51:24;37.28;;;16.92;;
75687;SDS011;64300;45.034;38.910;2023-01-29T17:53:50;41.75;;;19.05;;
75687;SDS011;64300;45.034;38.910;2023-01-29T17:56:23;36.72;;;15.77;;
75687;SDS011;64300;45.034;38.910;2023-01-29T17:58:54;33.63;;;15.05;;
75687;SDS011;64300;45.034;38.910;2023-01-29T18:03:46;39.95;;;17.35;;